createdAt,value
2023-03-31T00:00:18.773Z,99217.72
2023-03-31T00:02:46.222Z,99207.69
2023-03-31T00:05:18.031Z,99198.00
2023-03-31T00:07:46.162Z,99205.44
2023-03-31T00:10:18.428Z,99197.84
2023-03-31T00:12:46.079Z,99188.13
2023-03-31T00:15:13.023Z,99182.28
2023-03-31T00:17:40.041Z,99175.00
2023-03-31T00:20:12.346Z,99173.00
2023-03-31T00:22:42.326Z,99167.88
2023-03-31T00:25:13.896Z,99160.03
2023-03-31T00:27:44.434Z,99150.91
2023-03-31T00:30:16.150Z,99139.34
2023-03-31T00:32:42.900Z,99132.66
2023-03-31T00:35:10.150Z,99119.09
2023-03-31T00:37:37.079Z,99124.78
2023-03-31T00:40:09.310Z,99107.09
2023-03-31T00:42:44.039Z,99109.69
2023-03-31T00:45:14.028Z,99106.66
2023-03-31T00:47:47.681Z,99101.78
2023-03-31T00:50:23.452Z,99086.41
2023-03-31T00:52:55.973Z,99078.28
2023-03-31T00:55:30.900Z,99060.53
2023-03-31T00:57:58.034Z,99012.13
2023-03-31T01:00:24.712Z,99000.44
2023-03-31T01:02:56.217Z,98994.84
2023-03-31T01:05:27.776Z,98896.53
2023-03-31T01:07:56.161Z,98893.66
2023-03-31T01:10:23.226Z,98843.97
2023-03-31T01:12:54.236Z,98831.13
2023-03-31T01:15:22.101Z,98829.59
2023-03-31T01:17:51.218Z,98821.13
2023-03-31T01:20:24.558Z,98798.81
2023-03-31T01:23:00.495Z,98792.00
2023-03-31T01:26:24.520Z,98786.91
2023-03-31T01:29:12.378Z,98777.19
2023-03-31T01:31:57.252Z,98761.63
2023-03-31T01:34:48.200Z,98751.97
2023-03-31T01:37:26.986Z,98738.22
2023-03-31T01:40:09.678Z,98734.41
2023-03-31T01:42:44.729Z,98728.63
2023-03-31T01:45:26.481Z,98715.53
2023-03-31T01:48:03.017Z,98706.56
2023-03-31T01:50:35.361Z,98671.31
2023-03-31T01:53:11.075Z,98666.88
2023-03-31T01:55:42.818Z,98668.03
2023-03-31T01:58:16.892Z,98718.78
2023-03-31T02:00:56.977Z,98718.41
2023-03-31T02:03:31.041Z,98713.69
2023-03-31T02:06:19.326Z,98702.81
2023-03-31T02:08:55.032Z,98702.13
2023-03-31T02:11:22.922Z,98689.47
2023-03-31T02:13:53.102Z,98688.09
2023-03-31T02:16:26.313Z,98688.09
2023-03-31T02:19:02.420Z,98676.53
2023-03-31T02:21:33.373Z,98678.75
2023-03-31T02:24:08.969Z,98672.31
2023-03-31T02:26:57.492Z,98666.19
2023-03-31T02:29:24.243Z,98656.09
2023-03-31T02:32:06.017Z,98647.72
2023-03-31T02:34:32.686Z,98639.78
2023-03-31T02:36:59.735Z,98637.38
2023-03-31T02:39:32.627Z,98625.03
2023-03-31T02:42:02.338Z,98625.19
2023-03-31T02:44:29.114Z,98615.19
2023-03-31T02:46:55.862Z,98613.47
2023-03-31T02:49:22.642Z,98613.34
2023-03-31T02:52:17.183Z,98595.19
2023-03-31T02:55:17.468Z,98584.53
2023-03-31T02:57:59.116Z,98576.53
2023-03-31T03:00:49.877Z,98577.22
2023-03-31T03:03:27.422Z,98568.91
2023-03-31T03:06:05.855Z,98564.63
2023-03-31T03:08:55.659Z,98554.81
2023-03-31T03:11:40.646Z,98552.41
2023-03-31T03:14:40.798Z,98542.41
2023-03-31T03:17:35.188Z,98535.69
2023-03-31T03:20:07.941Z,98535.28
2023-03-31T03:22:35.781Z,98539.19
2023-03-31T03:25:02.413Z,98541.44
2023-03-31T03:27:29.180Z,98539.69
2023-03-31T03:29:56.308Z,98527.16
2023-03-31T03:32:23.107Z,98522.94
2023-03-31T03:34:49.816Z,98517.19
2023-03-31T03:37:16.460Z,98512.22
2023-03-31T03:39:43.136Z,98507.81
2023-03-31T03:42:09.806Z,98503.94
2023-03-31T03:44:36.414Z,98506.63
2023-03-31T03:47:03.319Z,98497.16
2023-03-31T03:49:30.109Z,98501.56
2023-03-31T03:51:56.799Z,98496.28
2023-03-31T03:54:23.560Z,98496.28
2023-03-31T03:56:50.320Z,98493.25
2023-03-31T03:59:17.138Z,98487.00
2023-03-31T04:01:43.854Z,98482.47
2023-03-31T04:04:10.660Z,98473.81
2023-03-31T04:06:37.523Z,98474.97
2023-03-31T04:09:05.407Z,98474.34
2023-03-31T04:11:32.849Z,98470.56
2023-03-31T04:13:59.612Z,98473.44
2023-03-31T04:16:26.352Z,98474.59
2023-03-31T04:18:56.760Z,98468.03
2023-03-31T04:21:23.990Z,98462.41
2023-03-31T04:23:58.925Z,98455.19
2023-03-31T04:26:30.920Z,98445.47
2023-03-31T04:29:01.394Z,98451.22
2023-03-31T04:31:30.796Z,98440.59
2023-03-31T04:34:02.615Z,98433.59
2023-03-31T04:36:31.440Z,98427.38
2023-03-31T04:38:58.159Z,98429.53
2023-03-31T04:41:27.998Z,98426.69
2023-03-31T04:43:54.784Z,98424.47
2023-03-31T04:46:22.085Z,98424.97
2023-03-31T04:48:48.857Z,98423.28
2023-03-31T04:51:16.395Z,98422.44
2023-03-31T04:53:43.176Z,98417.00
2023-03-31T04:56:10.015Z,98417.00
2023-03-31T04:58:36.878Z,98408.88
2023-03-31T05:01:06.416Z,98411.44
2023-03-31T05:03:33.647Z,98412.81
2023-03-31T05:06:01.241Z,98405.16
2023-03-31T05:08:27.911Z,98397.91
2023-03-31T05:10:54.544Z,98399.59
2023-03-31T05:13:21.289Z,98397.75
2023-03-31T05:15:50.752Z,98398.25
2023-03-31T05:18:18.480Z,98386.94
2023-03-31T05:20:45.336Z,98384.03
2023-03-31T05:23:12.028Z,98389.28
2023-03-31T05:25:38.696Z,98383.00
2023-03-31T05:28:06.072Z,98386.03
2023-03-31T05:30:32.832Z,98380.28
2023-03-31T05:32:59.688Z,98380.13
2023-03-31T05:35:26.613Z,98369.63
2023-03-31T05:37:53.316Z,98377.06
2023-03-31T05:40:20.078Z,98371.31
2023-03-31T05:42:46.750Z,98361.50
2023-03-31T05:45:13.828Z,98368.59
2023-03-31T05:47:40.695Z,98364.34
2023-03-31T05:50:09.093Z,98374.84
2023-03-31T05:52:36.357Z,98364.53
2023-03-31T05:55:04.371Z,98364.88
2023-03-31T05:57:31.440Z,98363.88
2023-03-31T05:59:58.366Z,98367.75
2023-03-31T06:02:25.108Z,98367.75
2023-03-31T06:04:52.157Z,98358.59
2023-03-31T06:07:19.250Z,98355.91
2023-03-31T06:09:46.509Z,98351.00
2023-03-31T06:12:13.149Z,98351.00
2023-03-31T06:14:39.836Z,98349.63
2023-03-31T06:17:07.330Z,98355.22
2023-03-31T06:19:34.547Z,98349.63
2023-03-31T06:22:01.666Z,98342.50
2023-03-31T06:24:28.450Z,98343.16
2023-03-31T06:26:55.257Z,98353.88
2023-03-31T06:29:22.081Z,98346.56
2023-03-31T06:31:48.745Z,98354.72
2023-03-31T06:34:15.682Z,98350.28
2023-03-31T06:36:42.272Z,98363.38
2023-03-31T06:39:08.941Z,98359.78
2023-03-31T06:41:35.663Z,98374.38
2023-03-31T06:44:02.354Z,98375.72
2023-03-31T06:46:29.040Z,98383.88
2023-03-31T06:48:55.777Z,98385.59
2023-03-31T06:51:22.526Z,98381.69
2023-03-31T06:53:49.312Z,98382.84
2023-03-31T06:56:16.312Z,98386.78
2023-03-31T06:58:43.015Z,98384.91
2023-03-31T07:01:11.472Z,98391.88
2023-03-31T07:03:38.455Z,98388.63
2023-03-31T07:06:05.534Z,98395.75
2023-03-31T07:08:32.759Z,98394.72
2023-03-31T07:11:01.253Z,98396.44
2023-03-31T07:13:28.932Z,98392.34
2023-03-31T07:15:56.261Z,98400.69
2023-03-31T07:18:34.234Z,98392.50
2023-03-31T07:21:02.037Z,98398.97
2023-03-31T07:23:28.886Z,98398.44
2023-03-31T07:25:55.575Z,98409.31
2023-03-31T07:28:22.257Z,98411.69
2023-03-31T07:30:49.171Z,98424.59
2023-03-31T07:33:15.963Z,98433.56
2023-03-31T07:35:42.721Z,98444.63
2023-03-31T07:38:11.052Z,98441.56
2023-03-31T07:40:38.142Z,98433.19
2023-03-31T07:43:05.956Z,98443.91
2023-03-31T07:45:33.516Z,98442.53
2023-03-31T07:48:00.440Z,98438.47
2023-03-31T07:50:27.365Z,98441.66
2023-03-31T07:52:54.334Z,98455.06
2023-03-31T07:55:27.798Z,98456.91
2023-03-31T07:57:54.795Z,98464.19
2023-03-31T08:00:21.987Z,98469.44
2023-03-31T08:02:48.798Z,98474.72
2023-03-31T08:05:17.951Z,98491.00
2023-03-31T08:07:47.198Z,98494.94
2023-03-31T08:10:23.775Z,98518.78
2023-03-31T08:12:50.505Z,98521.50
2023-03-31T08:15:17.572Z,98530.50
2023-03-31T08:17:44.528Z,98536.75
2023-03-31T08:20:11.994Z,98535.69
2023-03-31T08:22:40.339Z,98544.56
2023-03-31T08:25:08.609Z,98552.03
2023-03-31T08:27:36.526Z,98560.47
2023-03-31T08:30:04.678Z,98562.25
2023-03-31T08:32:32.610Z,98566.31
2023-03-31T08:34:59.743Z,98589.00
2023-03-31T08:37:28.292Z,98578.13
2023-03-31T08:39:56.036Z,98607.41
2023-03-31T08:42:57.855Z,98623.69
2023-03-31T08:45:30.585Z,98643.78
2023-03-31T08:48:28.274Z,98673.03
2023-03-31T08:51:01.516Z,98704.75
2023-03-31T08:53:41.076Z,98715.28
2023-03-31T08:56:14.817Z,98741.97
2023-03-31T08:58:46.287Z,98759.00
2023-03-31T09:01:47.906Z,98763.75
2023-03-31T09:04:33.347Z,98790.97
2023-03-31T09:07:47.061Z,98807.16
2023-03-31T09:10:38.548Z,98844.44
2023-03-31T09:13:14.123Z,98875.09
2023-03-31T09:15:50.638Z,98892.28
2023-03-31T09:18:38.699Z,98910.31
2023-03-31T09:21:13.216Z,98926.94
2023-03-31T09:23:46.619Z,98915.41
2023-03-31T09:26:24.057Z,98926.84
2023-03-31T09:28:53.585Z,98926.66
2023-03-31T09:31:22.434Z,98938.59
2023-03-31T09:33:52.887Z,98957.81
2023-03-31T09:36:24.486Z,98975.19
2023-03-31T09:38:51.793Z,98999.31
2023-03-31T09:41:21.888Z,99083.34
2023-03-31T09:43:49.730Z,99091.72
2023-03-31T09:46:21.888Z,99098.13
2023-03-31T09:48:54.905Z,99111.22
2023-03-31T09:51:29.859Z,99110.97
2023-03-31T09:54:28.982Z,99120.31
2023-03-31T09:56:55.872Z,99125.00
2023-03-31T09:59:34.257Z,99139.22
2023-03-31T10:02:04.518Z,99143.44
2023-03-31T10:04:34.582Z,99155.78
2023-03-31T10:07:04.838Z,99158.59
2023-03-31T10:09:34.338Z,99159.06
2023-03-31T10:12:07.278Z,99178.25
2023-03-31T10:14:41.658Z,99175.66
2023-03-31T10:17:19.705Z,99174.50
2023-03-31T10:20:06.431Z,99179.34
2023-03-31T10:22:33.195Z,99189.09
2023-03-31T10:25:29.345Z,99194.66
2023-03-31T10:27:57.369Z,99195.47
2023-03-31T10:30:35.469Z,99189.53
2023-03-31T10:33:21.958Z,99215.25
2023-03-31T10:35:54.730Z,99221.19
2023-03-31T10:38:33.111Z,99225.53
2023-03-31T10:41:00.982Z,99225.63
2023-03-31T10:43:33.572Z,99240.22
2023-03-31T10:46:00.659Z,99244.06
2023-03-31T10:48:31.109Z,99256.31
2023-03-31T10:51:21.108Z,99260.47
2023-03-31T10:53:52.913Z,99266.59
2023-03-31T10:56:31.784Z,99267.22
2023-03-31T10:59:29.859Z,99276.34
2023-03-31T11:02:11.732Z,99266.56
2023-03-31T11:05:13.328Z,99273.16
2023-03-31T11:07:58.971Z,99261.31
2023-03-31T11:10:28.511Z,99258.22
2023-03-31T11:13:07.433Z,99255.06
2023-03-31T11:15:59.317Z,99246.31
2023-03-31T11:18:51.864Z,99250.81
2023-03-31T11:21:34.030Z,99247.00
2023-03-31T11:24:09.749Z,99246.25
2023-03-31T11:26:45.707Z,99244.84
2023-03-31T11:29:34.420Z,99228.63
2023-03-31T11:32:22.794Z,99227.81
2023-03-31T11:35:00.271Z,99223.16
2023-03-31T11:38:01.555Z,99219.53
2023-03-31T11:40:57.481Z,99203.16
2023-03-31T11:43:36.509Z,99194.28
2023-03-31T11:46:06.531Z,99200.50
2023-03-31T11:48:48.142Z,99190.88
2023-03-31T11:51:24.908Z,99194.22
2023-03-31T11:53:54.613Z,99186.25
2023-03-31T11:56:24.714Z,99182.41
2023-03-31T11:58:58.911Z,99178.84
2023-03-31T12:01:42.525Z,99182.75
2023-03-31T12:04:18.202Z,99176.31
2023-03-31T12:06:46.671Z,99163.94
2023-03-31T12:09:24.128Z,99163.97
2023-03-31T12:11:57.819Z,99159.88
2023-03-31T12:14:24.415Z,99157.00
2023-03-31T12:17:27.604Z,99159.41
2023-03-31T12:20:10.643Z,99159.72
2023-03-31T12:22:43.309Z,99165.81
2023-03-31T12:25:15.628Z,99165.47
2023-03-31T12:27:50.517Z,99166.69
2023-03-31T12:30:42.229Z,99171.25
2023-03-31T12:33:30.748Z,99170.06
2023-03-31T12:36:03.589Z,99159.19
2023-03-31T12:38:55.287Z,99169.91
2023-03-31T12:41:38.298Z,99169.91
2023-03-31T12:44:16.833Z,99171.59
2023-03-31T12:47:13.929Z,99155.34
2023-03-31T12:49:40.546Z,99163.16
2023-03-31T12:52:43.265Z,99161.53
2023-03-31T12:55:28.955Z,99157.63
2023-03-31T12:58:25.016Z,99157.25
2023-03-31T13:01:14.827Z,99152.38
2023-03-31T13:03:49.740Z,99152.72
2023-03-31T13:06:25.568Z,99153.88
2023-03-31T13:08:59.302Z,99151.81
2023-03-31T13:11:38.170Z,99155.09
2023-03-31T13:14:19.846Z,99147.63
2023-03-31T13:16:47.989Z,99150.00
2023-03-31T13:19:34.602Z,99154.09
2023-03-31T13:22:03.715Z,99165.69
2023-03-31T13:24:32.258Z,99162.59
2023-03-31T13:27:19.992Z,99160.38
2023-03-31T13:29:46.715Z,99170.25
2023-03-31T13:32:24.312Z,99172.13
2023-03-31T13:35:07.710Z,99180.16
2023-03-31T13:37:58.836Z,99184.22
2023-03-31T13:40:48.390Z,99185.22
2023-03-31T13:43:22.868Z,99196.47
2023-03-31T13:45:52.732Z,99185.22
2023-03-31T13:48:34.738Z,99182.50
2023-03-31T13:51:13.692Z,99175.91
2023-03-31T13:53:57.737Z,99190.09
2023-03-31T13:56:33.583Z,99198.28
2023-03-31T13:59:21.527Z,99194.84
2023-03-31T14:02:21.268Z,99207.69
2023-03-31T14:04:47.871Z,99211.94
2023-03-31T14:07:20.364Z,99220.44
2023-03-31T14:09:49.973Z,99227.59
2023-03-31T14:12:27.207Z,99244.16
2023-03-31T14:14:54.864Z,99268.28
2023-03-31T14:17:26.225Z,99266.44
2023-03-31T14:20:10.582Z,99271.38
2023-03-31T14:22:46.318Z,99270.00
2023-03-31T14:25:28.136Z,99275.47
2023-03-31T14:28:10.158Z,99267.41
2023-03-31T14:30:52.816Z,99267.44
2023-03-31T14:33:27.692Z,99269.81
2023-03-31T14:36:01.995Z,99269.81
2023-03-31T14:38:30.098Z,99274.88
2023-03-31T14:41:00.944Z,99268.06
2023-03-31T14:43:33.524Z,99269.50
2023-03-31T14:46:08.200Z,99275.16
2023-03-31T14:48:45.127Z,99273.88
2023-03-31T14:51:15.501Z,99285.00
2023-03-31T14:53:45.495Z,99283.38
2023-03-31T14:56:21.358Z,99289.81
2023-03-31T14:58:51.747Z,99279.66
2023-03-31T15:01:24.439Z,99279.97
2023-03-31T15:03:53.473Z,99284.06
2023-03-31T15:06:20.499Z,99284.63
2023-03-31T15:08:47.514Z,99280.41
2023-03-31T15:11:19.630Z,99266.97
2023-03-31T15:14:03.717Z,99255.09
2023-03-31T15:16:35.233Z,99249.41
2023-03-31T15:19:11.091Z,99235.47
2023-03-31T15:21:38.908Z,99229.97
2023-03-31T15:24:06.039Z,99223.50
2023-03-31T15:26:41.716Z,99210.63
2023-03-31T15:29:23.072Z,99201.50
2023-03-31T15:31:49.941Z,99177.22
2023-03-31T15:34:27.221Z,99173.63
2023-03-31T15:36:56.335Z,99172.16
2023-03-31T15:39:29.939Z,99152.13
2023-03-31T15:41:57.896Z,99152.25
2023-03-31T15:44:54.027Z,99154.09
2023-03-31T15:47:25.428Z,99134.38
2023-03-31T15:50:14.260Z,99141.16
2023-03-31T15:52:49.882Z,99148.59
2023-03-31T15:55:31.723Z,99137.38
2023-03-31T15:58:00.861Z,99136.53
2023-03-31T16:00:33.540Z,99132.34
2023-03-31T16:03:03.875Z,99119.56
2023-03-31T16:05:54.869Z,99094.59
2023-03-31T16:08:32.673Z,99083.03
2023-03-31T16:11:08.146Z,99079.38
2023-03-31T16:13:40.874Z,99061.66
2023-03-31T16:16:15.279Z,99048.78
2023-03-31T16:18:55.594Z,99041.38
2023-03-31T16:21:27.325Z,99041.63
2023-03-31T16:23:57.293Z,99026.72
2023-03-31T16:26:28.363Z,99018.16
2023-03-31T16:28:57.619Z,99008.25
2023-03-31T16:31:34.472Z,99008.59
2023-03-31T16:34:02.729Z,98992.22
2023-03-31T16:36:29.708Z,98989.34
2023-03-31T16:38:58.722Z,98962.72
2023-03-31T16:41:28.874Z,98956.78
2023-03-31T16:43:55.628Z,98952.16
2023-03-31T16:46:24.027Z,98946.59
2023-03-31T16:48:51.835Z,98934.88
2023-03-31T16:51:19.325Z,98937.75
2023-03-31T16:53:52.818Z,98920.53
2023-03-31T16:56:19.602Z,98920.84
2023-03-31T16:58:50.293Z,98915.09
2023-03-31T17:01:17.217Z,98909.63
2023-03-31T17:03:47.584Z,98901.78
2023-03-31T17:06:14.601Z,98894.69
2023-03-31T17:08:42.317Z,98891.28
2023-03-31T17:11:12.381Z,98880.78
2023-03-31T17:13:40.687Z,98878.06
2023-03-31T17:16:16.326Z,98865.34
2023-03-31T17:18:46.595Z,98862.97
2023-03-31T17:21:15.690Z,98867.69
2023-03-31T17:23:42.857Z,98852.28
2023-03-31T17:26:13.602Z,98851.88
2023-03-31T17:28:41.670Z,98857.66
2023-03-31T17:31:13.730Z,98844.09
2023-03-31T17:33:41.871Z,98840.84
2023-03-31T17:36:09.928Z,98834.22
2023-03-31T17:38:38.516Z,98834.41
2023-03-31T17:41:12.754Z,98830.00
2023-03-31T17:43:40.147Z,98828.59
2023-03-31T17:46:13.579Z,98828.06
2023-03-31T17:48:47.059Z,98821.91
2023-03-31T17:51:43.031Z,98819.75
2023-03-31T17:54:13.185Z,98821.22
2023-03-31T17:56:39.968Z,98822.78
2023-03-31T17:59:37.617Z,98817.09
2023-03-31T18:02:13.771Z,98810.13
2023-03-31T18:04:40.569Z,98806.41
2023-03-31T18:07:07.532Z,98802.00
2023-03-31T18:09:34.662Z,98803.28
2023-03-31T18:12:01.455Z,98796.41
2023-03-31T18:14:28.649Z,98795.34
2023-03-31T18:16:55.929Z,98789.06
2023-03-31T18:19:26.053Z,98790.41
2023-03-31T18:21:53.010Z,98784.81
2023-03-31T18:24:20.635Z,98781.75
2023-03-31T18:26:47.370Z,98792.94
2023-03-31T18:29:14.390Z,98784.25
2023-03-31T18:31:41.829Z,98774.13
2023-03-31T18:34:09.112Z,98768.53
2023-03-31T18:36:36.001Z,98768.84
2023-03-31T18:39:02.755Z,98767.88
2023-03-31T18:41:29.934Z,98772.06
2023-03-31T18:43:56.639Z,98771.22
2023-03-31T18:46:23.492Z,98762.72
2023-03-31T18:48:51.323Z,98764.44
2023-03-31T18:51:18.544Z,98764.88
2023-03-31T18:53:48.774Z,98757.44
2023-03-31T18:56:16.127Z,98750.78
2023-03-31T18:58:44.067Z,98750.50
2023-03-31T19:01:10.867Z,98747.41
2023-03-31T19:03:42.550Z,98747.09
2023-03-31T19:06:20.978Z,98746.41
2023-03-31T19:08:56.602Z,98747.75
2023-03-31T19:11:32.121Z,98742.75
2023-03-31T19:13:59.380Z,98744.34
2023-03-31T19:16:29.808Z,98742.09
2023-03-31T19:18:57.091Z,98739.22
2023-03-31T19:21:24.800Z,98736.84
2023-03-31T19:23:55.892Z,98732.47
2023-03-31T19:26:22.858Z,98728.16
2023-03-31T19:28:50.261Z,98727.00
2023-03-31T19:31:18.194Z,98716.31
2023-03-31T19:33:44.988Z,98725.66
2023-03-31T19:36:12.064Z,98710.78
2023-03-31T19:38:39.604Z,98719.59
2023-03-31T19:41:12.574Z,98718.03
2023-03-31T19:43:39.757Z,98712.94
2023-03-31T19:46:06.735Z,98715.31
2023-03-31T19:48:34.013Z,98712.41
2023-03-31T19:51:06.264Z,98699.03
2023-03-31T19:53:33.297Z,98706.78
2023-03-31T19:56:12.186Z,98703.75
2023-03-31T19:58:39.644Z,98691.75
2023-03-31T20:01:16.088Z,98698.78
2023-03-31T20:03:43.483Z,98561.19
2023-03-31T20:06:14.923Z,98557.94
2023-03-31T20:08:43.102Z,98543.19
2023-03-31T20:11:13.485Z,98544.22
2023-03-31T20:13:42.181Z,98544.22
2023-03-31T20:16:14.837Z,98539.28
2023-03-31T20:18:47.930Z,98536.91
2023-03-31T20:21:18.151Z,98537.91
2023-03-31T20:23:45.527Z,98521.81
2023-03-31T20:26:19.286Z,98527.22
2023-03-31T20:28:46.854Z,98520.59
2023-03-31T20:31:17.859Z,98517.38
2023-03-31T20:33:46.171Z,98523.50
2023-03-31T20:36:17.168Z,98513.47
2023-03-31T20:38:46.321Z,98512.13
2023-03-31T20:41:14.038Z,98508.72
2023-03-31T20:43:41.389Z,98446.97
2023-03-31T20:46:09.642Z,98439.72
2023-03-31T20:48:39.708Z,98437.81
2023-03-31T20:51:08.537Z,98431.91
2023-03-31T20:53:42.206Z,98347.59
2023-03-31T20:56:15.678Z,98345.91
2023-03-31T20:58:44.398Z,98304.84
2023-03-31T21:01:12.485Z,98297.41
2023-03-31T21:03:39.877Z,98296.91
2023-03-31T21:06:11.655Z,98287.88
2023-03-31T21:08:40.835Z,98279.28
2023-03-31T21:11:07.873Z,98274.50
2023-03-31T21:13:35.042Z,98274.66
2023-03-31T21:16:04.354Z,98267.19
2023-03-31T21:18:33.575Z,98264.19
2023-03-31T21:21:02.592Z,98259.94
2023-03-31T21:23:30.630Z,98260.44
2023-03-31T21:26:01.722Z,98264.34
2023-03-31T21:28:34.613Z,98265.03
2023-03-31T21:31:04.458Z,98256.00
2023-03-31T21:33:33.437Z,98250.25
2023-03-31T21:36:00.475Z,98247.88
2023-03-31T21:38:30.566Z,98238.91
2023-03-31T21:40:57.581Z,98233.94
2023-03-31T21:43:25.865Z,98231.25
2023-03-31T21:45:57.239Z,98242.28
2023-03-31T21:48:26.484Z,98233.63
2023-03-31T21:50:54.898Z,98229.06
2023-03-31T21:53:24.832Z,98228.53
2023-03-31T21:55:55.119Z,98223.81
2023-03-31T21:58:28.385Z,98205.50
2023-03-31T22:01:00.346Z,98198.88
2023-03-31T22:03:29.039Z,98179.69
2023-03-31T22:05:57.194Z,98195.84
2023-03-31T22:08:25.451Z,98193.63
2023-03-31T22:10:53.101Z,98228.91
2023-03-31T22:13:21.442Z,98249.25
2023-03-31T22:15:48.632Z,98255.22
2023-03-31T22:18:17.081Z,98257.56
2023-03-31T22:20:45.140Z,98252.81
2023-03-31T22:23:12.056Z,98260.47
2023-03-31T22:25:38.957Z,98250.63
2023-03-31T22:28:07.268Z,98255.03
2023-03-31T22:30:35.155Z,98261.66
2023-03-31T22:33:02.045Z,98254.19
2023-03-31T22:35:29.276Z,98259.28
2023-03-31T22:37:56.256Z,98266.59
2023-03-31T22:40:24.068Z,98262.19
2023-03-31T22:42:50.829Z,98261.50
2023-03-31T22:45:17.613Z,98257.94
2023-03-31T22:47:44.380Z,98258.09
2023-03-31T22:50:12.011Z,98256.44
2023-03-31T22:52:38.776Z,98257.94
2023-03-31T22:55:06.243Z,98258.78
2023-03-31T22:57:33.637Z,98247.75
2023-03-31T23:00:00.803Z,98259.97
2023-03-31T23:02:27.662Z,98266.22
2023-03-31T23:04:54.434Z,98272.81
2023-03-31T23:07:22.268Z,98272.31
2023-03-31T23:09:49.161Z,98287.38
2023-03-31T23:12:16.541Z,98278.66
2023-03-31T23:14:43.401Z,98282.06
2023-03-31T23:17:10.157Z,98284.75
2023-03-31T23:19:38.842Z,98282.25
2023-03-31T23:22:06.102Z,98281.72
2023-03-31T23:24:33.231Z,98286.88
2023-03-31T23:26:59.974Z,98290.03
2023-03-31T23:29:27.367Z,98299.13
2023-03-31T23:31:54.344Z,98300.16
2023-03-31T23:34:21.314Z,98309.97
2023-03-31T23:36:48.039Z,98311.28
2023-03-31T23:39:14.872Z,98323.72
2023-03-31T23:41:41.670Z,98319.19
2023-03-31T23:44:08.377Z,98321.03
2023-03-31T23:46:36.300Z,98314.78
2023-03-31T23:49:04.850Z,98315.78
2023-03-31T23:51:31.556Z,98322.78
2023-03-31T23:53:58.392Z,98311.63
2023-03-31T23:56:27.072Z,98327.94
2023-03-31T23:58:54.070Z,98318.88
